East Bethany, New York
Current Conditions -  °F | °C
As of 1:46 AM on Thursday 27 Nov 2014 (Local Time) from KROC Reporting Station
Light Snow Light Snow  
Wind Chill: 23°   Ceiling: 2800
Heat Index: 29°   Visibility: 6mi
Dew Point: 26°   Wind: 6mph
Humidity: 89%   Direction: 300°WNW
Pressure: 30.04"   Gusts: NA
Location:  42.93°N, 78.1°W
Report Text: KROC 270646Z 30005KT 6SM -SN BR FEW008 OVC028 M02/M03 A3004 RMK AO2 P0001 T10171033
Loading
Personal Weather Stations






























Interactive Weather Map New forecast layout! Learn more

10-Day Weather Forecast

Advertisements
Track Severe Weather on mobile